sensor_id;sensor_type;location;lat;lon;timestamp;P1;durP1;ratioP1;P2;durP2;ratioP2
82926;SDS011;72788;40.218;44.486;2024-02-21T00:01:50;15.32;;;6.05;;
82926;SDS011;72788;40.218;44.486;2024-02-21T00:04:15;15.63;;;5.80;;
82926;SDS011;72788;40.218;44.486;2024-02-21T00:06:41;14.80;;;5.57;;
82926;SDS011;72788;40.218;44.486;2024-02-21T00:09:07;14.35;;;5.60;;
82926;SDS011;72788;40.218;44.486;2024-02-21T00:11:34;15.82;;;5.82;;
82926;SDS011;72788;40.218;44.486;2024-02-21T00:14:00;18.08;;;6.55;;
82926;SDS011;72788;40.218;44.486;2024-02-21T00:16:26;14.52;;;6.25;;
82926;SDS011;72788;40.218;44.486;2024-02-21T00:18:51;14.02;;;5.25;;
82926;SDS011;72788;40.218;44.486;2024-02-21T00:21:17;14.13;;;5.68;;
82926;SDS011;72788;40.218;44.486;2024-02-21T00:23:46;12.57;;;5.28;;
82926;SDS011;72788;40.218;44.486;2024-02-21T00:26:12;13.82;;;4.85;;
82926;SDS011;72788;40.218;44.486;2024-02-21T00:28:41;11.25;;;4.68;;
82926;SDS011;72788;40.218;44.486;2024-02-21T00:31:06;12.43;;;4.78;;
82926;SDS011;72788;40.218;44.486;2024-02-21T00:33:32;13.02;;;4.72;;
82926;SDS011;72788;40.218;44.486;2024-02-21T00:35:58;15.65;;;5.72;;
82926;SDS011;72788;40.218;44.486;2024-02-21T00:38:23;18.52;;;5.88;;
82926;SDS011;72788;40.218;44.486;2024-02-21T00:40:49;12.85;;;4.97;;
82926;SDS011;72788;40.218;44.486;2024-02-21T00:43:14;16.52;;;5.72;;
82926;SDS011;72788;40.218;44.486;2024-02-21T00:45:40;15.57;;;5.43;;
82926;SDS011;72788;40.218;44.486;2024-02-21T00:48:06;16.13;;;5.20;;
82926;SDS011;72788;40.218;44.486;2024-02-21T00:50:32;15.57;;;5.68;;
82926;SDS011;72788;40.218;44.486;2024-02-21T00:52:57;13.63;;;5.53;;
82926;SDS011;72788;40.218;44.486;2024-02-21T00:55:23;15.55;;;5.22;;
82926;SDS011;72788;40.218;44.486;2024-02-21T00:57:49;16.63;;;5.60;;
82926;SDS011;72788;40.218;44.486;2024-02-21T01:00:14;18.02;;;5.55;;
82926;SDS011;72788;40.218;44.486;2024-02-21T01:02:40;12.90;;;5.40;;
82926;SDS011;72788;40.218;44.486;2024-02-21T01:05:06;16.85;;;5.13;;
82926;SDS011;72788;40.218;44.486;2024-02-21T01:07:32;14.90;;;5.13;;
82926;SDS011;72788;40.218;44.486;2024-02-21T01:09:58;16.33;;;4.68;;
82926;SDS011;72788;40.218;44.486;2024-02-21T01:12:23;14.60;;;5.57;;
82926;SDS011;72788;40.218;44.486;2024-02-21T01:14:49;13.27;;;4.95;;
82926;SDS011;72788;40.218;44.486;2024-02-21T01:17:15;12.27;;;4.75;;
82926;SDS011;72788;40.218;44.486;2024-02-21T01:19:41;13.70;;;5.13;;
82926;SDS011;72788;40.218;44.486;2024-02-21T01:22:07;14.10;;;4.85;;
82926;SDS011;72788;40.218;44.486;2024-02-21T01:24:33;12.25;;;4.40;;
82926;SDS011;72788;40.218;44.486;2024-02-21T01:26:58;10.88;;;4.00;;
82926;SDS011;72788;40.218;44.486;2024-02-21T01:29:24;11.50;;;4.82;;
82926;SDS011;72788;40.218;44.486;2024-02-21T01:31:50;12.88;;;5.15;;
82926;SDS011;72788;40.218;44.486;2024-02-21T01:34:15;15.88;;;4.78;;
82926;SDS011;72788;40.218;44.486;2024-02-21T01:36:41;15.75;;;4.80;;
82926;SDS011;72788;40.218;44.486;2024-02-21T01:39:07;15.30;;;5.00;;
82926;SDS011;72788;40.218;44.486;2024-02-21T01:41:33;12.10;;;4.75;;
82926;SDS011;72788;40.218;44.486;2024-02-21T01:43:58;11.85;;;4.35;;
82926;SDS011;72788;40.218;44.486;2024-02-21T01:46:24;14.05;;;4.53;;
82926;SDS011;72788;40.218;44.486;2024-02-21T01:48:54;12.77;;;4.15;;
82926;SDS011;72788;40.218;44.486;2024-02-21T01:51:21;10.80;;;4.40;;
82926;SDS011;72788;40.218;44.486;2024-02-21T01:54:05;12.10;;;6.32;;
82926;SDS011;72788;40.218;44.486;2024-02-21T01:56:49;11.02;;;3.95;;
82926;SDS011;72788;40.218;44.486;2024-02-21T01:59:16;14.15;;;4.65;;
82926;SDS011;72788;40.218;44.486;2024-02-21T02:01:43;13.80;;;4.18;;
82926;SDS011;72788;40.218;44.486;2024-02-21T02:04:11;13.23;;;4.28;;
82926;SDS011;72788;40.218;44.486;2024-02-21T02:06:37;13.32;;;4.30;;
82926;SDS011;72788;40.218;44.486;2024-02-21T02:56:13;12.90;;;4.22;;
82926;SDS011;72788;40.218;44.486;2024-02-21T02:58:41;12.13;;;4.35;;
82926;SDS011;72788;40.218;44.486;2024-02-21T03:01:08;11.50;;;4.22;;
82926;SDS011;72788;40.218;44.486;2024-02-21T03:03:34;13.10;;;4.40;;
82926;SDS011;72788;40.218;44.486;2024-02-21T03:06:01;13.82;;;4.20;;
82926;SDS011;72788;40.218;44.486;2024-02-21T03:08:27;12.82;;;4.90;;
82926;SDS011;72788;40.218;44.486;2024-02-21T03:10:53;14.63;;;5.07;;
82926;SDS011;72788;40.218;44.486;2024-02-21T03:13:18;11.32;;;4.15;;
82926;SDS011;72788;40.218;44.486;2024-02-21T03:15:44;17.20;;;5.70;;
82926;SDS011;72788;40.218;44.486;2024-02-21T03:18:10;15.45;;;5.10;;
82926;SDS011;72788;40.218;44.486;2024-02-21T03:20:36;14.35;;;5.47;;
82926;SDS011;72788;40.218;44.486;2024-02-21T03:23:01;16.05;;;5.78;;
82926;SDS011;72788;40.218;44.486;2024-02-21T03:25:27;18.70;;;6.40;;
82926;SDS011;72788;40.218;44.486;2024-02-21T03:27:53;15.82;;;7.50;;
82926;SDS011;72788;40.218;44.486;2024-02-21T03:30:18;18.30;;;5.80;;
82926;SDS011;72788;40.218;44.486;2024-02-21T03:32:44;14.63;;;6.38;;
82926;SDS011;72788;40.218;44.486;2024-02-21T03:35:10;22.38;;;7.13;;
82926;SDS011;72788;40.218;44.486;2024-02-21T03:37:35;15.63;;;6.03;;
82926;SDS011;72788;40.218;44.486;2024-02-21T03:40:01;20.60;;;6.13;;
82926;SDS011;72788;40.218;44.486;2024-02-21T03:42:27;17.77;;;5.50;;
82926;SDS011;72788;40.218;44.486;2024-02-21T03:44:55;14.15;;;5.90;;
82926;SDS011;72788;40.218;44.486;2024-02-21T03:47:21;15.95;;;6.13;;
82926;SDS011;72788;40.218;44.486;2024-02-21T03:49:47;14.73;;;6.13;;
82926;SDS011;72788;40.218;44.486;2024-02-21T03:52:12;15.82;;;5.93;;
82926;SDS011;72788;40.218;44.486;2024-02-21T03:54:38;13.70;;;5.78;;
82926;SDS011;72788;40.218;44.486;2024-02-21T03:57:04;13.88;;;5.65;;
82926;SDS011;72788;40.218;44.486;2024-02-21T03:59:31;16.08;;;5.85;;
82926;SDS011;72788;40.218;44.486;2024-02-21T04:01:57;16.08;;;6.03;;
82926;SDS011;72788;40.218;44.486;2024-02-21T04:04:22;16.65;;;5.88;;
82926;SDS011;72788;40.218;44.486;2024-02-21T04:06:48;26.95;;;6.57;;
82926;SDS011;72788;40.218;44.486;2024-02-21T04:09:15;17.95;;;6.50;;
82926;SDS011;72788;40.218;44.486;2024-02-21T04:11:41;23.15;;;7.38;;
82926;SDS011;72788;40.218;44.486;2024-02-21T04:14:06;21.50;;;7.68;;
82926;SDS011;72788;40.218;44.486;2024-02-21T04:16:32;25.08;;;7.43;;
82926;SDS011;72788;40.218;44.486;2024-02-21T04:18:58;31.23;;;8.73;;
82926;SDS011;72788;40.218;44.486;2024-02-21T04:21:24;28.77;;;10.15;;
82926;SDS011;72788;40.218;44.486;2024-02-21T04:23:49;21.63;;;8.65;;
82926;SDS011;72788;40.218;44.486;2024-02-21T04:26:15;27.88;;;9.27;;
82926;SDS011;72788;40.218;44.486;2024-02-21T04:28:41;26.48;;;9.05;;
82926;SDS011;72788;40.218;44.486;2024-02-21T04:31:06;24.08;;;8.75;;
82926;SDS011;72788;40.218;44.486;2024-02-21T04:33:32;25.23;;;9.07;;
82926;SDS011;72788;40.218;44.486;2024-02-21T04:35:58;29.10;;;9.50;;
82926;SDS011;72788;40.218;44.486;2024-02-21T04:38:25;24.02;;;8.88;;
82926;SDS011;72788;40.218;44.486;2024-02-21T04:40:51;38.28;;;9.68;;
82926;SDS011;72788;40.218;44.486;2024-02-21T04:43:17;27.27;;;8.43;;
82926;SDS011;72788;40.218;44.486;2024-02-21T04:45:43;28.75;;;8.68;;
82926;SDS011;72788;40.218;44.486;2024-02-21T04:48:08;28.50;;;9.65;;
82926;SDS011;72788;40.218;44.486;2024-02-21T04:50:34;24.80;;;8.45;;
82926;SDS011;72788;40.218;44.486;2024-02-21T04:53:00;27.83;;;8.82;;
82926;SDS011;72788;40.218;44.486;2024-02-21T04:55:25;34.33;;;10.05;;
82926;SDS011;72788;40.218;44.486;2024-02-21T04:57:51;31.15;;;10.63;;
82926;SDS011;72788;40.218;44.486;2024-02-21T05:00:17;33.97;;;10.50;;
82926;SDS011;72788;40.218;44.486;2024-02-21T05:02:42;26.10;;;9.40;;
82926;SDS011;72788;40.218;44.486;2024-02-21T05:05:08;30.00;;;9.27;;
82926;SDS011;72788;40.218;44.486;2024-02-21T05:07:34;25.15;;;7.70;;
82926;SDS011;72788;40.218;44.486;2024-02-21T05:10:00;26.35;;;8.18;;
82926;SDS011;72788;40.218;44.486;2024-02-21T05:12:26;28.23;;;8.52;;
82926;SDS011;72788;40.218;44.486;2024-02-21T05:14:51;29.63;;;8.90;;
82926;SDS011;72788;40.218;44.486;2024-02-21T05:17:17;46.83;;;10.32;;
82926;SDS011;72788;40.218;44.486;2024-02-21T05:19:43;48.25;;;10.00;;
82926;SDS011;72788;40.218;44.486;2024-02-21T05:22:08;33.90;;;9.77;;
82926;SDS011;72788;40.218;44.486;2024-02-21T05:24:34;43.00;;;9.55;;
82926;SDS011;72788;40.218;44.486;2024-02-21T05:26:59;114.38;;;12.45;;
82926;SDS011;72788;40.218;44.486;2024-02-21T05:29:25;52.67;;;9.68;;
82926;SDS011;72788;40.218;44.486;2024-02-21T05:34:17;40.97;;;9.38;;
82926;SDS011;72788;40.218;44.486;2024-02-21T05:36:43;44.13;;;8.75;;
82926;SDS011;72788;40.218;44.486;2024-02-21T05:39:09;46.20;;;10.77;;
82926;SDS011;72788;40.218;44.486;2024-02-21T05:41:35;27.50;;;8.57;;
82926;SDS011;72788;40.218;44.486;2024-02-21T05:44:00;27.70;;;7.97;;
82926;SDS011;72788;40.218;44.486;2024-02-21T05:46:26;40.67;;;9.07;;
82926;SDS011;72788;40.218;44.486;2024-02-21T05:48:52;38.25;;;9.63;;
82926;SDS011;72788;40.218;44.486;2024-02-21T05:51:17;50.92;;;10.50;;
82926;SDS011;72788;40.218;44.486;2024-02-21T05:53:43;40.20;;;9.65;;
82926;SDS011;72788;40.218;44.486;2024-02-21T05:56:12;35.45;;;9.98;;
82926;SDS011;72788;40.218;44.486;2024-02-21T05:58:39;28.98;;;9.15;;
82926;SDS011;72788;40.218;44.486;2024-02-21T06:01:05;36.13;;;10.00;;
82926;SDS011;72788;40.218;44.486;2024-02-21T06:03:32;67.45;;;12.85;;
82926;SDS011;72788;40.218;44.486;2024-02-21T06:05:59;75.90;;;14.13;;
82926;SDS011;72788;40.218;44.486;2024-02-21T06:08:25;40.13;;;12.02;;
82926;SDS011;72788;40.218;44.486;2024-02-21T06:10:51;31.52;;;11.10;;
82926;SDS011;72788;40.218;44.486;2024-02-21T06:13:28;47.33;;;11.73;;
82926;SDS011;72788;40.218;44.486;2024-02-21T06:15:54;29.15;;;9.82;;
82926;SDS011;72788;40.218;44.486;2024-02-21T06:18:20;34.88;;;11.82;;
82926;SDS011;72788;40.218;44.486;2024-02-21T06:20:46;27.70;;;10.95;;
82926;SDS011;72788;40.218;44.486;2024-02-21T06:23:12;19.92;;;7.80;;
82926;SDS011;72788;40.218;44.486;2024-02-21T06:25:38;25.10;;;8.13;;
82926;SDS011;72788;40.218;44.486;2024-02-21T06:28:05;23.83;;;7.32;;
82926;SDS011;72788;40.218;44.486;2024-02-21T06:30:31;16.92;;;6.65;;
82926;SDS011;72788;40.218;44.486;2024-02-21T06:32:56;19.00;;;5.88;;
82926;SDS011;72788;40.218;44.486;2024-02-21T06:35:22;12.07;;;5.45;;
82926;SDS011;72788;40.218;44.486;2024-02-21T06:37:50;11.00;;;4.72;;
82926;SDS011;72788;40.218;44.486;2024-02-21T06:40:23;28.50;;;6.65;;
82926;SDS011;72788;40.218;44.486;2024-02-21T06:42:52;25.17;;;7.78;;
82926;SDS011;72788;40.218;44.486;2024-02-21T06:45:17;17.23;;;7.75;;
82926;SDS011;72788;40.218;44.486;2024-02-21T06:47:43;16.33;;;6.63;;
82926;SDS011;72788;40.218;44.486;2024-02-21T06:50:09;17.73;;;7.00;;
82926;SDS011;72788;40.218;44.486;2024-02-21T06:52:35;19.08;;;6.53;;
82926;SDS011;72788;40.218;44.486;2024-02-21T06:55:01;20.88;;;8.13;;
82926;SDS011;72788;40.218;44.486;2024-02-21T06:57:28;17.08;;;6.75;;
82926;SDS011;72788;40.218;44.486;2024-02-21T06:59:54;17.88;;;6.88;;
82926;SDS011;72788;40.218;44.486;2024-02-21T07:02:20;20.58;;;9.35;;
82926;SDS011;72788;40.218;44.486;2024-02-21T07:04:46;14.77;;;6.50;;
82926;SDS011;72788;40.218;44.486;2024-02-21T07:07:12;23.08;;;8.45;;
82926;SDS011;72788;40.218;44.486;2024-02-21T07:09:38;20.88;;;7.63;;
82926;SDS011;72788;40.218;44.486;2024-02-21T07:12:04;15.27;;;6.82;;
82926;SDS011;72788;40.218;44.486;2024-02-21T07:14:30;24.17;;;7.28;;
82926;SDS011;72788;40.218;44.486;2024-02-21T07:16:57;38.80;;;8.55;;
82926;SDS011;72788;40.218;44.486;2024-02-21T07:19:23;15.20;;;6.18;;
82926;SDS011;72788;40.218;44.486;2024-02-21T07:21:48;12.88;;;5.97;;
82926;SDS011;72788;40.218;44.486;2024-02-21T07:24:14;21.95;;;8.05;;
82926;SDS011;72788;40.218;44.486;2024-02-21T07:26:43;24.55;;;12.10;;
82926;SDS011;72788;40.218;44.486;2024-02-21T07:29:09;36.35;;;14.73;;
82926;SDS011;72788;40.218;44.486;2024-02-21T07:31:38;26.02;;;12.60;;
82926;SDS011;72788;40.218;44.486;2024-02-21T07:34:06;31.42;;;14.27;;
82926;SDS011;72788;40.218;44.486;2024-02-21T07:36:31;26.98;;;12.57;;
82926;SDS011;72788;40.218;44.486;2024-02-21T07:38:57;25.30;;;11.88;;
82926;SDS011;72788;40.218;44.486;2024-02-21T07:41:23;26.77;;;12.60;;
82926;SDS011;72788;40.218;44.486;2024-02-21T07:43:48;26.90;;;12.23;;
82926;SDS011;72788;40.218;44.486;2024-02-21T07:46:15;26.20;;;12.00;;
82926;SDS011;72788;40.218;44.486;2024-02-21T07:48:41;28.23;;;11.63;;
82926;SDS011;72788;40.218;44.486;2024-02-21T07:51:06;36.45;;;12.05;;
82926;SDS011;72788;40.218;44.486;2024-02-21T07:53:32;27.70;;;11.65;;
82926;SDS011;72788;40.218;44.486;2024-02-21T07:55:57;31.52;;;12.38;;
82926;SDS011;72788;40.218;44.486;2024-02-21T07:58:23;25.75;;;11.20;;
82926;SDS011;72788;40.218;44.486;2024-02-21T08:00:49;35.05;;;10.93;;
82926;SDS011;72788;40.218;44.486;2024-02-21T08:03:14;24.88;;;10.50;;
82926;SDS011;72788;40.218;44.486;2024-02-21T08:05:42;25.63;;;11.18;;
82926;SDS011;72788;40.218;44.486;2024-02-21T08:08:08;27.55;;;10.43;;
82926;SDS011;72788;40.218;44.486;2024-02-21T08:10:34;22.60;;;9.88;;
82926;SDS011;72788;40.218;44.486;2024-02-21T08:13:00;26.88;;;8.48;;
82926;SDS011;72788;40.218;44.486;2024-02-21T08:15:25;19.65;;;8.75;;
82926;SDS011;72788;40.218;44.486;2024-02-21T08:17:55;23.08;;;8.95;;
82926;SDS011;72788;40.218;44.486;2024-02-21T08:20:24;24.10;;;9.35;;
82926;SDS011;72788;40.218;44.486;2024-02-21T08:22:50;31.05;;;12.13;;
82926;SDS011;72788;40.218;44.486;2024-02-21T08:25:16;28.58;;;8.70;;
82926;SDS011;72788;40.218;44.486;2024-02-21T08:27:42;29.70;;;8.38;;
82926;SDS011;72788;40.218;44.486;2024-02-21T08:30:07;18.23;;;6.85;;
82926;SDS011;72788;40.218;44.486;2024-02-21T08:32:34;21.80;;;8.02;;
82926;SDS011;72788;40.218;44.486;2024-02-21T08:35:01;34.42;;;9.63;;
82926;SDS011;72788;40.218;44.486;2024-02-21T08:37:30;20.30;;;8.70;;
82926;SDS011;72788;40.218;44.486;2024-02-21T08:39:55;38.75;;;7.97;;
82926;SDS011;72788;40.218;44.486;2024-02-21T08:42:21;24.40;;;8.80;;
82926;SDS011;72788;40.218;44.486;2024-02-21T08:44:47;19.55;;;6.85;;
82926;SDS011;72788;40.218;44.486;2024-02-21T08:47:12;17.83;;;7.70;;
82926;SDS011;72788;40.218;44.486;2024-02-21T08:49:38;21.85;;;7.40;;
82926;SDS011;72788;40.218;44.486;2024-02-21T08:52:04;18.10;;;7.35;;
82926;SDS011;72788;40.218;44.486;2024-02-21T08:54:30;21.17;;;7.40;;
82926;SDS011;72788;40.218;44.486;2024-02-21T08:56:58;19.42;;;6.95;;
82926;SDS011;72788;40.218;44.486;2024-02-21T08:59:23;24.30;;;10.30;;
82926;SDS011;72788;40.218;44.486;2024-02-21T09:01:50;21.50;;;7.55;;
82926;SDS011;72788;40.218;44.486;2024-02-21T09:04:17;15.02;;;7.28;;
82926;SDS011;72788;40.218;44.486;2024-02-21T09:06:43;16.77;;;6.38;;
82926;SDS011;72788;40.218;44.486;2024-02-21T09:09:10;15.38;;;6.68;;
82926;SDS011;72788;40.218;44.486;2024-02-21T09:11:35;14.95;;;6.47;;
82926;SDS011;72788;40.218;44.486;2024-02-21T09:14:01;23.13;;;7.15;;
82926;SDS011;72788;40.218;44.486;2024-02-21T09:16:30;14.43;;;6.50;;
82926;SDS011;72788;40.218;44.486;2024-02-21T09:18:57;16.00;;;6.35;;
82926;SDS011;72788;40.218;44.486;2024-02-21T09:21:23;15.18;;;6.20;;
82926;SDS011;72788;40.218;44.486;2024-02-21T09:23:48;16.20;;;7.07;;
82926;SDS011;72788;40.218;44.486;2024-02-21T09:26:14;16.60;;;7.80;;
82926;SDS011;72788;40.218;44.486;2024-02-21T09:28:42;14.63;;;6.15;;
82926;SDS011;72788;40.218;44.486;2024-02-21T09:31:09;18.50;;;7.18;;
82926;SDS011;72788;40.218;44.486;2024-02-21T09:33:34;18.63;;;7.93;;
82926;SDS011;72788;40.218;44.486;2024-02-21T09:36:01;14.80;;;6.30;;
82926;SDS011;72788;40.218;44.486;2024-02-21T09:38:26;15.75;;;6.85;;
82926;SDS011;72788;40.218;44.486;2024-02-21T09:40:59;19.30;;;7.68;;
82926;SDS011;72788;40.218;44.486;2024-02-21T09:43:41;13.55;;;6.60;;
82926;SDS011;72788;40.218;44.486;2024-02-21T09:46:07;16.63;;;5.85;;
82926;SDS011;72788;40.218;44.486;2024-02-21T09:51:09;13.90;;;6.50;;
82926;SDS011;72788;40.218;44.486;2024-02-21T09:53:37;17.02;;;6.68;;
82926;SDS011;72788;40.218;44.486;2024-02-21T09:56:05;15.30;;;7.38;;
82926;SDS011;72788;40.218;44.486;2024-02-21T09:58:33;39.10;;;17.30;;
82926;SDS011;72788;40.218;44.486;2024-02-21T10:00:59;42.83;;;19.77;;
82926;SDS011;72788;40.218;44.486;2024-02-21T10:03:26;26.20;;;10.73;;
82926;SDS011;72788;40.218;44.486;2024-02-21T10:05:51;31.98;;;14.15;;
82926;SDS011;72788;40.218;44.486;2024-02-21T10:08:17;30.08;;;15.95;;
82926;SDS011;72788;40.218;44.486;2024-02-21T10:10:45;18.00;;;6.90;;
82926;SDS011;72788;40.218;44.486;2024-02-21T10:13:21;14.07;;;6.47;;
82926;SDS011;72788;40.218;44.486;2024-02-21T10:15:59;32.35;;;16.23;;
82926;SDS011;72788;40.218;44.486;2024-02-21T10:18:26;36.20;;;17.88;;
82926;SDS011;72788;40.218;44.486;2024-02-21T10:23:28;32.47;;;14.55;;
82926;SDS011;72788;40.218;44.486;2024-02-21T10:26:03;21.10;;;7.85;;
82926;SDS011;72788;40.218;44.486;2024-02-21T10:28:30;20.88;;;8.85;;
82926;SDS011;72788;40.218;44.486;2024-02-21T10:30:56;29.45;;;13.95;;
82926;SDS011;72788;40.218;44.486;2024-02-21T10:33:22;17.58;;;7.47;;
82926;SDS011;72788;40.218;44.486;2024-02-21T10:35:49;26.25;;;8.73;;
82926;SDS011;72788;40.218;44.486;2024-02-21T10:38:15;19.98;;;9.38;;
82926;SDS011;72788;40.218;44.486;2024-02-21T10:40:40;21.13;;;11.15;;
82926;SDS011;72788;40.218;44.486;2024-02-21T10:43:07;14.82;;;6.53;;
82926;SDS011;72788;40.218;44.486;2024-02-21T10:45:37;17.38;;;7.40;;
82926;SDS011;72788;40.218;44.486;2024-02-21T10:48:11;18.15;;;7.93;;
82926;SDS011;72788;40.218;44.486;2024-02-21T10:50:56;25.90;;;9.45;;
82926;SDS011;72788;40.218;44.486;2024-02-21T10:58:44;18.05;;;7.93;;
82926;SDS011;72788;40.218;44.486;2024-02-21T11:01:11;22.25;;;8.13;;
82926;SDS011;72788;40.218;44.486;2024-02-21T11:03:40;20.08;;;8.18;;
82926;SDS011;72788;40.218;44.486;2024-02-21T11:06:09;20.92;;;8.45;;
82926;SDS011;72788;40.218;44.486;2024-02-21T11:08:36;16.63;;;7.80;;
82926;SDS011;72788;40.218;44.486;2024-02-21T11:11:02;18.17;;;8.65;;
82926;SDS011;72788;40.218;44.486;2024-02-21T11:13:40;20.35;;;7.47;;
82926;SDS011;72788;40.218;44.486;2024-02-21T11:16:09;24.83;;;9.32;;
82926;SDS011;72788;40.218;44.486;2024-02-21T11:18:39;14.35;;;6.47;;
82926;SDS011;72788;40.218;44.486;2024-02-21T11:21:05;17.92;;;7.53;;
82926;SDS011;72788;40.218;44.486;2024-02-21T11:23:31;13.13;;;5.95;;
82926;SDS011;72788;40.218;44.486;2024-02-21T11:26:03;14.55;;;6.05;;
82926;SDS011;72788;40.218;44.486;2024-02-21T11:28:31;20.60;;;8.32;;
82926;SDS011;72788;40.218;44.486;2024-02-21T11:31:14;13.77;;;6.20;;
82926;SDS011;72788;40.218;44.486;2024-02-21T11:33:40;12.10;;;5.43;;
82926;SDS011;72788;40.218;44.486;2024-02-21T11:36:08;15.95;;;5.93;;
82926;SDS011;72788;40.218;44.486;2024-02-21T11:38:34;14.77;;;5.75;;
82926;SDS011;72788;40.218;44.486;2024-02-21T11:40:59;15.75;;;7.97;;
82926;SDS011;72788;40.218;44.486;2024-02-21T11:43:25;13.23;;;5.95;;
82926;SDS011;72788;40.218;44.486;2024-02-21T11:46:01;16.17;;;6.93;;
82926;SDS011;72788;40.218;44.486;2024-02-21T11:48:29;19.17;;;7.95;;
82926;SDS011;72788;40.218;44.486;2024-02-21T11:50:56;15.15;;;7.70;;
82926;SDS011;72788;40.218;44.486;2024-02-21T11:53:22;15.13;;;5.43;;
82926;SDS011;72788;40.218;44.486;2024-02-21T11:55:49;15.95;;;6.13;;
82926;SDS011;72788;40.218;44.486;2024-02-21T11:58:15;16.95;;;6.63;;
82926;SDS011;72788;40.218;44.486;2024-02-21T12:00:41;13.80;;;6.90;;
82926;SDS011;72788;40.218;44.486;2024-02-21T12:03:07;18.13;;;8.90;;
82926;SDS011;72788;40.218;44.486;2024-02-21T12:05:33;19.50;;;6.50;;
82926;SDS011;72788;40.218;44.486;2024-02-21T12:07:59;21.77;;;6.45;;
82926;SDS011;72788;40.218;44.486;2024-02-21T12:10:25;16.15;;;5.53;;
82926;SDS011;72788;40.218;44.486;2024-02-21T12:12:52;13.93;;;6.15;;
82926;SDS011;72788;40.218;44.486;2024-02-21T12:15:20;15.30;;;6.07;;
82926;SDS011;72788;40.218;44.486;2024-02-21T12:17:46;17.92;;;7.50;;
82926;SDS011;72788;40.218;44.486;2024-02-21T12:20:12;11.65;;;5.55;;
82926;SDS011;72788;40.218;44.486;2024-02-21T12:22:38;14.23;;;5.70;;
82926;SDS011;72788;40.218;44.486;2024-02-21T12:25:04;18.13;;;7.97;;
82926;SDS011;72788;40.218;44.486;2024-02-21T12:27:41;11.32;;;5.20;;
82926;SDS011;72788;40.218;44.486;2024-02-21T12:30:06;14.40;;;5.68;;
82926;SDS011;72788;40.218;44.486;2024-02-21T12:32:35;10.98;;;4.95;;
82926;SDS011;72788;40.218;44.486;2024-02-21T12:35:01;11.32;;;5.00;;
82926;SDS011;72788;40.218;44.486;2024-02-21T12:37:30;11.65;;;4.60;;
82926;SDS011;72788;40.218;44.486;2024-02-21T12:39:55;13.02;;;5.15;;
82926;SDS011;72788;40.218;44.486;2024-02-21T12:42:21;28.95;;;5.60;;
82926;SDS011;72788;40.218;44.486;2024-02-21T12:44:48;16.95;;;4.50;;
82926;SDS011;72788;40.218;44.486;2024-02-21T12:47:14;16.02;;;5.05;;
82926;SDS011;72788;40.218;44.486;2024-02-21T12:49:40;13.05;;;5.43;;
82926;SDS011;72788;40.218;44.486;2024-02-21T12:52:06;10.73;;;5.53;;
82926;SDS011;72788;40.218;44.486;2024-02-21T12:54:32;14.07;;;5.57;;
82926;SDS011;72788;40.218;44.486;2024-02-21T12:56:59;13.15;;;5.60;;
82926;SDS011;72788;40.218;44.486;2024-02-21T12:59:28;15.20;;;5.45;;
82926;SDS011;72788;40.218;44.486;2024-02-21T13:01:54;15.70;;;5.28;;
82926;SDS011;72788;40.218;44.486;2024-02-21T13:04:19;15.98;;;6.47;;
82926;SDS011;72788;40.218;44.486;2024-02-21T13:06:48;11.82;;;6.18;;
82926;SDS011;72788;40.218;44.486;2024-02-21T13:09:14;14.52;;;6.90;;
82926;SDS011;72788;40.218;44.486;2024-02-21T13:11:40;13.15;;;5.78;;
82926;SDS011;72788;40.218;44.486;2024-02-21T13:14:06;14.55;;;6.00;;
82926;SDS011;72788;40.218;44.486;2024-02-21T13:16:32;14.65;;;5.63;;
82926;SDS011;72788;40.218;44.486;2024-02-21T13:19:04;16.77;;;6.45;;
82926;SDS011;72788;40.218;44.486;2024-02-21T13:21:30;16.08;;;6.03;;
82926;SDS011;72788;40.218;44.486;2024-02-21T13:23:56;12.63;;;5.88;;
82926;SDS011;72788;40.218;44.486;2024-02-21T13:26:22;20.98;;;6.40;;
82926;SDS011;72788;40.218;44.486;2024-02-21T13:28:48;14.23;;;5.70;;
82926;SDS011;72788;40.218;44.486;2024-02-21T13:31:14;19.30;;;6.47;;
82926;SDS011;72788;40.218;44.486;2024-02-21T13:33:41;13.13;;;5.97;;
82926;SDS011;72788;40.218;44.486;2024-02-21T13:36:09;14.40;;;5.70;;
82926;SDS011;72788;40.218;44.486;2024-02-21T13:38:35;13.15;;;5.68;;
82926;SDS011;72788;40.218;44.486;2024-02-21T13:41:01;14.15;;;6.32;;
82926;SDS011;72788;40.218;44.486;2024-02-21T13:43:26;13.60;;;5.90;;
82926;SDS011;72788;40.218;44.486;2024-02-21T13:45:59;13.35;;;5.38;;
82926;SDS011;72788;40.218;44.486;2024-02-21T13:48:26;15.25;;;5.03;;
82926;SDS011;72788;40.218;44.486;2024-02-21T13:50:55;13.48;;;5.72;;
82926;SDS011;72788;40.218;44.486;2024-02-21T13:53:21;15.93;;;6.25;;
82926;SDS011;72788;40.218;44.486;2024-02-21T13:55:48;20.23;;;7.22;;
82926;SDS011;72788;40.218;44.486;2024-02-21T13:58:14;13.00;;;6.10;;
82926;SDS011;72788;40.218;44.486;2024-02-21T14:00:40;13.32;;;6.38;;
82926;SDS011;72788;40.218;44.486;2024-02-21T14:03:06;17.33;;;7.00;;
82926;SDS011;72788;40.218;44.486;2024-02-21T14:05:32;16.27;;;6.20;;
82926;SDS011;72788;40.218;44.486;2024-02-21T14:07:57;18.20;;;7.53;;
82926;SDS011;72788;40.218;44.486;2024-02-21T14:10:23;12.32;;;6.10;;
82926;SDS011;72788;40.218;44.486;2024-02-21T14:12:48;19.40;;;6.53;;
82926;SDS011;72788;40.218;44.486;2024-02-21T14:15:14;18.92;;;6.55;;
82926;SDS011;72788;40.218;44.486;2024-02-21T14:17:41;14.25;;;6.05;;
82926;SDS011;72788;40.218;44.486;2024-02-21T14:20:08;18.95;;;6.90;;
82926;SDS011;72788;40.218;44.486;2024-02-21T14:22:34;13.20;;;5.70;;
82926;SDS011;72788;40.218;44.486;2024-02-21T14:25:02;13.43;;;6.05;;
82926;SDS011;72788;40.218;44.486;2024-02-21T14:27:30;14.82;;;6.78;;
82926;SDS011;72788;40.218;44.486;2024-02-21T14:29:56;15.50;;;6.90;;
82926;SDS011;72788;40.218;44.486;2024-02-21T14:32:22;14.95;;;7.38;;
82926;SDS011;72788;40.218;44.486;2024-02-21T14:34:48;14.02;;;6.82;;
82926;SDS011;72788;40.218;44.486;2024-02-21T14:37:14;18.90;;;7.35;;
82926;SDS011;72788;40.218;44.486;2024-02-21T14:39:40;17.02;;;7.28;;
82926;SDS011;72788;40.218;44.486;2024-02-21T14:42:06;19.67;;;7.97;;
82926;SDS011;72788;40.218;44.486;2024-02-21T14:44:34;20.95;;;7.13;;
82926;SDS011;72788;40.218;44.486;2024-02-21T14:47:02;25.70;;;8.68;;
82926;SDS011;72788;40.218;44.486;2024-02-21T14:49:28;23.48;;;8.52;;
82926;SDS011;72788;40.218;44.486;2024-02-21T14:51:54;18.27;;;7.82;;
82926;SDS011;72788;40.218;44.486;2024-02-21T14:54:20;15.55;;;7.60;;
82926;SDS011;72788;40.218;44.486;2024-02-21T14:56:46;21.92;;;8.05;;
82926;SDS011;72788;40.218;44.486;2024-02-21T14:59:12;16.10;;;7.03;;
82926;SDS011;72788;40.218;44.486;2024-02-21T15:01:38;14.57;;;6.70;;
82926;SDS011;72788;40.218;44.486;2024-02-21T15:04:04;15.40;;;6.13;;
82926;SDS011;72788;40.218;44.486;2024-02-21T15:06:30;16.50;;;6.05;;
82926;SDS011;72788;40.218;44.486;2024-02-21T15:08:57;20.58;;;5.80;;
82926;SDS011;72788;40.218;44.486;2024-02-21T15:11:23;13.63;;;5.57;;
82926;SDS011;72788;40.218;44.486;2024-02-21T15:13:49;14.43;;;5.57;;
82926;SDS011;72788;40.218;44.486;2024-02-21T15:16:15;14.43;;;6.43;;
82926;SDS011;72788;40.218;44.486;2024-02-21T15:18:41;17.52;;;6.88;;